Amherst, Ohio
Current Conditions -  °F | °C
As of 12:53 PM on Wednesday 28 Jan 2015 (Local Time) from KLPR Reporting Station
Clear Clear  
Wind Chill: 12°   Ceiling: Unl
Heat Index: 21°   Visibility: 10mi
Dew Point: 13°   Wind: 7mph
Humidity: 71%   Direction: 230°SW
Pressure: 30.34"   Gusts: NA
Location:  41.41°N, 82.24°W
Report Text: KLPR 281753Z AUTO 23006KT 10SM CLR M06/M11 A3034 RMK AO2 SLP288 I6002 T10611106 11061 21178 58008 TSNO
Loading
Personal Weather Stations






























Interactive Weather Map New forecast layout! Learn more

10-Day Weather Forecast

Advertisements
Track Severe Weather on mobile